M I D A S
Marine Information and Data Acquisition System
Tripno 2072 of the Zeeleeuw from 2011-04-05 07:06:15 to 2011-04-05 15:38:27
Back to CruiseResearch ActivitiesStationsMapUnderway DataData graphs

EquipmentUnitsComment
TimeDGPSUTC
LatitudeDGPSDM.mWGS84
LongitudeDGPSDM.mWGS84
HeadingGyrodeg 
SOGDGPSknotsSpeed over ground
COGDGPSdegCourse over ground
DepthEcho soundermeters200 kHz
Missing or incorrect values are displayed as -999
Navigation data collected by the RV Zeeleeuw from 2011-04-05 07:08:43 to 2011-04-05 15:46:28
                                                                                    Next 1000 lines
Time Latitude Longitude Heading SOG COG Depth
2011-04-05 07:08:52 51°13.662 2°55.957 111.2 1.3 295 6.3
2011-04-05 07:08:57 51°13.663 2°55.954 111.2 1.7 301 6.4
2011-04-05 07:09:03 51°13.665 2°55.949 111.2 2.2 294 6.6
2011-04-05 07:09:07 51°13.666 2°55.944 110.9 2.6 296 6.1
2011-04-05 07:09:13 51°13.669 2°55.936 110.2 3.2 293 -999
2011-04-05 07:09:18 51°13.671 2°55.929 109.1 3.5 292 -999
2011-04-05 07:09:23 51°13.673 2°55.921 107.9 3.8 290 -999
2011-04-05 07:09:28 51°13.674 2°55.912 106.8 4 288 -999
2011-04-05 07:09:33 51°13.676 2°55.904 105.5 3.9 285 -999
2011-04-05 07:09:38 51°13.677 2°55.896 104.2 3.9 286 -999
2011-04-05 07:09:43 51°13.679 2°55.887 103.1 3.9 284 -999
2011-04-05 07:09:48 51°13.68 2°55.878 102.1 4 284 -999
2011-04-05 07:09:53 51°13.681 2°55.87 101.3 4.1 282 -999
2011-04-05 07:09:58 51°13.682 2°55.861 100.4 4.2 283 -999
2011-04-05 07:10:03 51°13.684 2°55.851 99.5 4.2 281 -999
2011-04-05 07:10:08 51°13.685 2°55.842 98.4 4.2 283 -999
2011-04-05 07:10:13 51°13.686 2°55.833 96.6 4.1 280 -999
2011-04-05 07:10:18 51°13.687 2°55.825 94.7 4 279 -999
2011-04-05 07:10:23 51°13.688 2°55.816 92.7 3.9 277 -999
2011-04-05 07:10:28 51°13.688 2°55.808 90.7 3.8 276 -999
2011-04-05 07:10:33 51°13.689 2°55.8 89.2 3.6 274 -999
2011-04-05 07:10:38 51°13.689 2°55.792 87 3.5 273 -999
2011-04-05 07:10:43 51°13.689 2°55.785 85.1 3.4 272 -999
2011-04-05 07:10:48 51°13.689 2°55.778 83.4 3.2 271 -999
2011-04-05 07:10:53 51°13.689 2°55.771 82 3.1 271 -999
2011-04-05 07:10:58 51°13.689 2°55.765 79.9 2.9 268 11.3
2011-04-05 07:11:03 51°13.689 2°55.759 78.8 2.6 268 11
2011-04-05 07:11:07 51°13.689 2°55.755 77.3 2.4 268 10.6
2011-04-05 07:11:12 51°13.689 2°55.75 75.6 2 269 10.3
2011-04-05 07:11:17 51°13.689 2°55.746 73.1 1.6 269 10.5
2011-04-05 07:11:22 51°13.689 2°55.743 70.2 1.3 275 10.6
2011-04-05 07:11:27 51°13.689 2°55.742 66.9 1 275 10.6
2011-04-05 07:11:31 51°13.689 2°55.74 63.4 0.8 284 10.8
2011-04-05 07:11:37 51°13.69 2°55.739 59.5 0.6 297 10.9
2011-04-05 07:11:41 51°13.69 2°55.738 55.4 0.5 313 11.1
2011-04-05 07:11:47 51°13.691 2°55.738 51.6 0.4 327 11.4
2011-04-05 07:11:51 51°13.691 2°55.737 47.7 0.5 335 11.5
2011-04-05 07:11:56 51°13.692 2°55.737 44.1 0.7 349 11.6
2011-04-05 07:12:01 51°13.693 2°55.738 40.7 1 15 11.5
2011-04-05 07:12:06 51°13.695 2°55.738 36.4 1.3 5 11.4
2011-04-05 07:12:11 51°13.697 2°55.739 30.1 1.4 11 11.1
2011-04-05 07:12:15 51°13.698 2°55.739 24.5 1.6 6 10.7
2011-04-05 07:12:20 51°13.701 2°55.739 18.9 1.7 4 10.6
2011-04-05 07:12:25 51°13.703 2°55.739 13.7 1.9 -999 11
2011-04-05 07:12:30 51°13.706 2°55.739 8.6 2 357 11.2
2011-04-05 07:12:35 51°13.709 2°55.739 3.7 2.1 354 11.3
2011-04-05 07:12:39 51°13.711 2°55.738 358.9 2.2 350 11.1
2011-04-05 07:12:44 51°13.714 2°55.737 354.3 2.3 346 11
2011-04-05 07:12:49 51°13.717 2°55.735 349.5 2.5 342 10.9
2011-04-05 07:12:55 51°13.722 2°55.733 344.7 2.8 338 10.8
2011-04-05 07:12:59 51°13.725 2°55.73 339.7 3.1 334 10.7
2011-04-05 07:13:04 51°13.729 2°55.727 335.6 3.5 333 10.6
2011-04-05 07:13:09 51°13.734 2°55.723 333.2 4 330 10.4
2011-04-05 07:13:15 51°13.741 2°55.717 331.8 4.5 330 10.3
2011-04-05 07:13:19 51°13.746 2°55.713 331.2 5 331 10.2
2011-04-05 07:13:24 51°13.753 2°55.707 330.8 5.5 329 10.1
2011-04-05 07:13:29 51°13.76 2°55.7 330.6 5.9 330 9.8
2011-04-05 07:13:34 51°13.768 2°55.693 330.6 6.3 329 9.8
2011-04-05 07:13:39 51°13.776 2°55.685 330.6 6.6 328 9.7
2011-04-05 07:13:44 51°13.784 2°55.677 331 7 330 9.7
2011-04-05 07:13:50 51°13.794 2°55.668 331.6 7.3 330 9.7
2011-04-05 07:13:55 51°13.803 2°55.659 331.9 7.6 331 9.6
2011-04-05 07:13:59 51°13.811 2°55.652 333 7.9 332 9.6
2011-04-05 07:14:04 51°13.821 2°55.644 333.9 8.3 332 9.6
2011-04-05 07:14:09 51°13.831 2°55.635 334.8 8.5 334 -999
2011-04-05 07:14:15 51°13.844 2°55.625 335.5 8.7 334 9.5
2011-04-05 07:14:19 51°13.853 2°55.619 335.7 8.9 334 -999
2011-04-05 07:14:25 51°13.867 2°55.608 336 9.2 334 -999
2011-04-05 07:14:31 51°13.881 2°55.598 336.9 9.4 335 -999
2011-04-05 07:14:36 51°13.893 2°55.589 337 9.5 334 9.5
2011-04-05 07:14:41 51°13.905 2°55.58 336.9 9.7 335 9.5
2011-04-05 07:14:46 51°13.917 2°55.57 336.9 9.8 334 9.5
2011-04-05 07:14:51 51°13.929 2°55.56 336.7 9.8 335 9.5
2011-04-05 07:14:56 51°13.941 2°55.551 336.8 9.9 335 -999
2011-04-05 07:15:01 51°13.953 2°55.541 337 9.9 335 9.5
2011-04-05 07:15:06 51°13.966 2°55.532 337.5 10 336 9.5
2011-04-05 07:15:11 51°13.978 2°55.523 337.7 10 335 9.5
2011-04-05 07:15:16 51°13.991 2°55.513 337.2 10 335 9.5
2011-04-05 07:15:21 51°14.003 2°55.504 337.1 10 334 -999
2011-04-05 07:15:26 51°14.016 2°55.495 336.8 10 335 9.4
2011-04-05 07:15:31 51°14.029 2°55.486 336.6 10 335 9.3
2011-04-05 07:15:35 51°14.04 2°55.478 336.6 10 335 9.3
2011-04-05 07:15:41 51°14.055 2°55.467 336.6 10.1 334 -999
2011-04-05 07:15:47 51°14.07 2°55.455 336.3 10.2 334 -999
2011-04-05 07:15:51 51°14.08 2°55.448 336.7 10.2 335 9.2
2011-04-05 07:15:56 51°14.093 2°55.437 336.9 10.3 334 9.4
2011-04-05 07:16:01 51°14.106 2°55.427 336.2 10.4 334 -999
2011-04-05 07:16:07 51°14.121 2°55.414 336.3 10.5 334 9.2
2011-04-05 07:16:11 51°14.132 2°55.406 336.2 10.6 333 9.2
2011-04-05 07:16:17 51°14.147 2°55.393 335.9 10.7 333 -999
2011-04-05 07:16:22 51°14.16 2°55.382 335.6 10.8 333 9.2
2011-04-05 07:16:27 51°14.174 2°55.37 334.9 10.8 332 9.2
2011-04-05 07:16:32 51°14.187 2°55.36 334.6 10.8 332 -999
2011-04-05 07:16:38 51°14.203 2°55.346 334 10.9 331 -999
2011-04-05 07:16:43 51°14.216 2°55.334 333.3 10.9 332 9.2
2011-04-05 07:16:47 51°14.227 2°55.324 333.3 11 329 9.3
2011-04-05 07:16:53 51°14.243 2°55.31 333 11.1 330 -999
2011-04-05 07:16:58 51°14.256 2°55.296 332.3 11.1 328 -999
2011-04-05 07:17:03 51°14.269 2°55.284 331.7 11.1 329 -999
2011-04-05 07:17:08 51°14.282 2°55.27 330.4 11.2 326 -999
2011-04-05 07:17:13 51°14.295 2°55.257 329.3 11.2 328 -999
2011-04-05 07:17:18 51°14.308 2°55.243 329.1 11.3 327 -999
2011-04-05 07:17:23 51°14.322 2°55.23 329.4 11.3 328 -999
2011-04-05 07:17:28 51°14.335 2°55.216 329.4 11.4 328 -999
2011-04-05 07:17:32 51°14.346 2°55.206 329.9 11.5 328 8.9
2011-04-05 07:17:38 51°14.362 2°55.189 330.1 11.6 328 9
2011-04-05 07:17:43 51°14.376 2°55.176 330.1 11.7 328 8.7
2011-04-05 07:17:47 51°14.387 2°55.164 330.4 11.8 328 9.1
2011-04-05 07:17:52 51°14.401 2°55.151 330.9 11.9 330 8.7
2011-04-05 07:17:57 51°14.415 2°55.137 331.3 11.9 328 8.8
2011-04-05 07:18:02 51°14.43 2°55.124 331.5 12 329 9.1
2011-04-05 07:18:07 51°14.444 2°55.109 331.6 12 327 9
2011-04-05 07:18:12 51°14.458 2°55.096 330.6 12 329 -999
2011-04-05 07:18:17 51°14.472 2°55.081 330 12 326 9.5
2011-04-05 07:18:23 51°14.489 2°55.064 329.5 12.1 329 9.6
2011-04-05 07:18:27 51°14.501 2°55.053 330 12.3 328 9.7
2011-04-05 07:18:32 51°14.515 2°55.038 330.1 12.3 328 9.2
2011-04-05 07:18:37 51°14.529 2°55.023 330 12.4 326 10.3
2011-04-05 07:18:42 51°14.544 2°55.007 329.7 12.5 326 10.8
2011-04-05 07:18:47 51°14.558 2°54.991 329.5 12.7 323 11
2011-04-05 07:18:52 51°14.571 2°54.972 329 12.7 320 10.6
2011-04-05 07:18:57 51°14.583 2°54.951 327.1 12.8 314 10.3
2011-04-05 07:19:01 51°14.593 2°54.935 323.2 12.9 313 10.6
2011-04-05 07:19:06 51°14.604 2°54.914 320.3 12.9 310 10.2
2011-04-05 07:19:11 51°14.616 2°54.891 318 12.9 309 10.7
2011-04-05 07:19:16 51°14.626 2°54.868 316.4 13 307 10.3
2011-04-05 07:19:21 51°14.636 2°54.844 314.5 13 303 10
2011-04-05 07:19:26 51°14.645 2°54.819 310.6 13 300 9.7
2011-04-05 07:19:31 51°14.653 2°54.793 307.3 13 295 10.1
2011-04-05 07:19:35 51°14.658 2°54.771 302.2 13.1 291 9.9
2011-04-05 07:19:40 51°14.664 2°54.743 297.7 13.1 287 9.7
2011-04-05 07:19:45 51°14.668 2°54.715 293 13.2 283 9.7
2011-04-05 07:19:50 51°14.67 2°54.686 289.4 13.2 279 9.6
2011-04-05 07:19:55 51°14.672 2°54.657 283.8 13.3 275 9.7
2011-04-05 07:19:59 51°14.673 2°54.633 279.5 13.3 272 9.5
2011-04-05 07:20:04 51°14.672 2°54.603 274.9 13.4 267 9.1
2011-04-05 07:20:09 51°14.67 2°54.574 271.4 13.4 262 8.4
2011-04-05 07:20:14 51°14.666 2°54.545 265.4 13.3 258 8.6
2011-04-05 07:20:19 51°14.662 2°54.517 260.9 13.2 255 8.4
2011-04-05 07:20:24 51°14.656 2°54.489 256.4 13.3 250 8.6
2011-04-05 07:20:29 51°14.649 2°54.462 251.9 13.4 246 8.5
2011-04-05 07:20:34 51°14.64 2°54.435 247.5 13.4 243 8.2
2011-04-05 07:20:39 51°14.631 2°54.409 243.9 13.4 240 8.2
2011-04-05 07:20:44 51°14.622 2°54.384 240.7 13.5 238 8.3
2011-04-05 07:20:50 51°14.609 2°54.354 238.1 13.6 237 6
2011-04-05 07:20:55 51°14.598 2°54.329 236.5 13.6 236 6
2011-04-05 07:20:59 51°14.59 2°54.309 235.7 13.6 235 8.3
2011-04-05 07:21:04 51°14.579 2°54.285 235 13.6 235 8
2011-04-05 07:21:09 51°14.568 2°54.26 234.6 13.8 235 8.2
2011-04-05 07:21:15 51°14.555 2°54.229 235.5 13.8 237 8.2
2011-04-05 07:21:19 51°14.547 2°54.209 236.1 13.8 237 8.2
2011-04-05 07:21:24 51°14.537 2°54.183 237.4 13.8 239 8.1
2011-04-05 07:21:30 51°14.525 2°54.152 238.5 13.8 239 6
2011-04-05 07:21:35 51°14.516 2°54.125 239.7 13.8 240 8.2
2011-04-05 07:21:39 51°14.508 2°54.104 240.4 13.8 240 7.9
2011-04-05 07:21:44 51°14.499 2°54.077 240.9 13.8 240 8
2011-04-05 07:21:49 51°14.489 2°54.051 241 13.8 240 8
2011-04-05 07:21:55 51°14.477 2°54.02 240 13.8 238 7.9
2011-04-05 07:21:59 51°14.469 2°53.999 238.5 13.9 237 7.7
2011-04-05 07:22:04 51°14.458 2°53.974 237.1 13.8 236 7.8
2011-04-05 07:22:09 51°14.447 2°53.949 236 13.8 235 5.8
2011-04-05 07:22:15 51°14.433 2°53.919 234.8 13.8 233 7.9
2011-04-05 07:22:19 51°14.424 2°53.9 233.1 13.8 231 7.9
2011-04-05 07:22:24 51°14.411 2°53.877 230.9 13.8 230 7.7
2011-04-05 07:22:29 51°14.399 2°53.854 230 13.8 230 7.7
2011-04-05 07:22:34 51°14.387 2°53.83 229.4 13.8 229 7.8
2011-04-05 07:22:39 51°14.374 2°53.807 228.8 13.8 229 7.9
2011-04-05 07:22:44 51°14.361 2°53.784 228.6 13.8 229 7.7
2011-04-05 07:22:49 51°14.349 2°53.761 228 13.8 229 5.8
2011-04-05 07:22:54 51°14.336 2°53.739 228.1 13.8 228 7.8
2011-04-05 07:22:59 51°14.324 2°53.715 228.1 13.8 229 7.8
2011-04-05 07:23:04 51°14.311 2°53.692 228.1 13.9 228 7.9
2011-04-05 07:23:10 51°14.296 2°53.664 228.3 13.9 229 -999
2011-04-05 07:23:15 51°14.283 2°53.641 228.7 13.9 229 7.9
2011-04-05 07:23:19 51°14.273 2°53.622 229.2 13.9 230 7.7
2011-04-05 07:23:24 51°14.261 2°53.599 229.2 13.9 231 7.7
2011-04-05 07:23:29 51°14.249 2°53.575 230.2 13.9 232 5.8
2011-04-05 07:23:35 51°14.235 2°53.546 232 13.8 233 7.9
2011-04-05 07:23:39 51°14.226 2°53.526 232.7 13.8 234 7.8
2011-04-05 07:23:44 51°14.215 2°53.501 233.7 13.9 235 7.8
2011-04-05 07:23:50 51°14.202 2°53.47 235 13.9 237 7.8
2011-04-05 07:23:55 51°14.192 2°53.444 237.5 13.9 239 7.9
2011-04-05 07:23:59 51°14.185 2°53.423 239.7 13.9 240 8
2011-04-05 07:24:04 51°14.175 2°53.396 241.7 13.8 242 7.9
2011-04-05 07:24:09 51°14.167 2°53.369 242.6 13.8 242 5.9
2011-04-05 07:24:15 51°14.156 2°53.336 243.7 13.8 243 8
2011-04-05 07:24:19 51°14.149 2°53.314 244 13.8 243 7.9
2011-04-05 07:24:24 51°14.14 2°53.287 244.1 13.9 243 8
2011-04-05 07:24:29 51°14.131 2°53.26 244.1 13.9 242 -999
2011-04-05 07:24:35 51°14.12 2°53.228 243.5 13.9 241 8.1
2011-04-05 07:24:39 51°14.112 2°53.207 241.6 13.9 238 8.1
2011-04-05 07:24:44 51°14.101 2°53.181 239.1 14 236 8.2
2011-04-05 07:24:49 51°14.09 2°53.156 237.4 13.9 234 6
2011-04-05 07:24:54 51°14.079 2°53.131 235.2 13.9 233 8.1
2011-04-05 07:24:59 51°14.067 2°53.107 233.8 13.9 233 8.2
2011-04-05 07:25:04 51°14.055 2°53.082 233.1 13.9 233 8.2
2011-04-05 07:25:09 51°14.044 2°53.057 233 13.9 232 6
2011-04-05 07:25:14 51°14.032 2°53.033 232.4 13.9 232 8.3
2011-04-05 07:25:19 51°14.02 2°53.009 232.2 14 232 8.3
2011-04-05 07:25:24 51°14.008 2°52.984 232.4 14 233 8.4
2011-04-05 07:25:29 51°13.997 2°52.959 233 14 234 8.3
2011-04-05 07:25:35 51°13.984 2°52.928 234.5 14 236 8.2
2011-04-05 07:25:39 51°13.975 2°52.908 236.2 14 237 8.3
2011-04-05 07:25:44 51°13.965 2°52.881 238.1 14 239 8.3
2011-04-05 07:25:49 51°13.955 2°52.855 239.3 13.9 239 8.1
2011-04-05 07:25:55 51°13.943 2°52.823 240.1 14 240 8.3
2011-04-05 07:25:59 51°13.935 2°52.802 240.6 14 239 8.3
2011-04-05 07:26:04 51°13.925 2°52.775 240.6 14 239 8.4
2011-04-05 07:26:09 51°13.915 2°52.749 240.1 14 238 8.3
2011-04-05 07:26:15 51°13.903 2°52.718 239.6 14 238 8.3
2011-04-05 07:26:19 51°13.894 2°52.697 239.4 14 237 8.4
2011-04-05 07:26:24 51°13.883 2°52.671 237.9 14 235 8.4
2011-04-05 07:26:29 51°13.872 2°52.646 236.4 14.1 234 8.3
2011-04-05 07:26:34 51°13.861 2°52.621 235.2 14 234 8.5
2011-04-05 07:26:39 51°13.849 2°52.596 234.3 14 233 8.5
2011-04-05 07:26:44 51°13.837 2°52.572 233.4 14 233 8.4
2011-04-05 07:26:49 51°13.825 2°52.547 233.1 14 232 8.3
2011-04-05 07:26:55 51°13.811 2°52.518 232.3 14 232 8.3
2011-04-05 07:26:59 51°13.801 2°52.499 232.1 14 232 8.6
2011-04-05 07:27:04 51°13.79 2°52.474 232.4 14 233 8.4
2011-04-05 07:27:09 51°13.778 2°52.449 232.5 14 233 8.5
2011-04-05 07:27:15 51°13.764 2°52.42 232.9 14 232 8.6
2011-04-05 07:27:19 51°13.754 2°52.4 232.9 14 233 8.6
2011-04-05 07:27:24 51°13.743 2°52.375 233.1 14 233 8.5
2011-04-05 07:27:30 51°13.729 2°52.345 233.3 14 234 8.6
2011-04-05 07:27:35 51°13.717 2°52.32 233.5 14 233 8.5
2011-04-05 07:27:39 51°13.708 2°52.301 233.5 14 233 8.4
2011-04-05 07:27:44 51°13.696 2°52.276 233.7 14 233 8.5
2011-04-05 07:27:49 51°13.685 2°52.251 233.6 14 234 8.4
2011-04-05 07:27:55 51°13.671 2°52.22 234.5 14.1 235 8.5
2011-04-05 07:27:59 51°13.663 2°52.2 235.3 14 237 8.5
2011-04-05 07:28:04 51°13.652 2°52.173 236.9 14 237 8.5
2011-04-05 07:28:10 51°13.64 2°52.142 237.8 14.1 239 8.6
2011-04-05 07:28:15 51°13.63 2°52.115 239 14 239 8.6
2011-04-05 07:28:19 51°13.622 2°52.094 239.6 14 238 8.7
2011-04-05 07:28:24 51°13.612 2°52.068 239.4 14 238 8.6
2011-04-05 07:28:29 51°13.601 2°52.041 239.2 14 237 8.7
2011-04-05 07:28:34 51°13.59 2°52.016 238 14 236 8.6
2011-04-05 07:28:39 51°13.579 2°51.991 236.4 14 235 8.7
2011-04-05 07:28:44 51°13.568 2°51.966 235.2 14 234 8.6
2011-04-05 07:28:49 51°13.556 2°51.941 234.5 14 234 8.6
2011-04-05 07:28:54 51°13.545 2°51.916 234 14 234 8.6
2011-04-05 07:28:59 51°13.533 2°51.891 233.9 14 234 8.7
2011-04-05 07:29:04 51°13.522 2°51.866 234.2 14.1 236 8.6
2011-04-05 07:29:09 51°13.511 2°51.84 235.4 14 236 8.6
2011-04-05 07:29:15 51°13.499 2°51.809 236.7 14 238 8.7
2011-04-05 07:29:19 51°13.491 2°51.788 237.9 14 238 8.8
2011-04-05 07:29:24 51°13.48 2°51.761 238.6 14 239 8.8
2011-04-05 07:29:29 51°13.47 2°51.734 239.4 14 239 8.8
2011-04-05 07:29:35 51°13.458 2°51.703 239.6 14.1 238 8.8
2011-04-05 07:29:39 51°13.45 2°51.682 239.3 14.1 238 8.8
2011-04-05 07:29:44 51°13.439 2°51.656 238.9 14.1 237 8.8
2011-04-05 07:29:49 51°13.428 2°51.63 238 14.1 236 8.9
2011-04-05 07:29:55 51°13.415 2°51.599 236.7 14.1 236 8.7
2011-04-05 07:29:59 51°13.406 2°51.579 235.6 14 234 8.8
2011-04-05 07:30:04 51°13.395 2°51.554 234.7 14 234 9
2011-04-05 07:30:09 51°13.383 2°51.529 234 14 233 8.8
2011-04-05 07:30:15 51°13.369 2°51.499 233.5 14 233 8.8
2011-04-05 07:30:19 51°13.359 2°51.479 233.1 14.1 233 8.9
2011-04-05 07:30:24 51°13.348 2°51.454 233.1 14 234 8.8
2011-04-05 07:30:29 51°13.336 2°51.429 233.5 14 234 8.9
2011-04-05 07:30:35 51°13.323 2°51.399 233.9 14.1 235 8.9
2011-04-05 07:30:39 51°13.314 2°51.379 234.5 14.1 235 8.9
2011-04-05 07:30:44 51°13.303 2°51.353 235.2 14.1 236 8.9
2011-04-05 07:30:49 51°13.292 2°51.327 236.5 14 237 9
2011-04-05 07:30:55 51°13.28 2°51.295 237.7 14.1 238 8.9
2011-04-05 07:30:59 51°13.272 2°51.274 238.5 14.1 238 9
2011-04-05 07:31:04 51°13.261 2°51.248 238.9 14.1 238 9
2011-04-05 07:31:09 51°13.251 2°51.221 239 14.1 238 9
2011-04-05 07:31:14 51°13.24 2°51.195 239.1 14.1 238 9
2011-04-05 07:31:19 51°13.23 2°51.168 238.9 14.1 238 9
2011-04-05 07:31:24 51°13.219 2°51.142 238.6 14.2 237 9
2011-04-05 07:31:29 51°13.209 2°51.116 238.2 14.1 237 9
2011-04-05 07:31:35 51°13.195 2°51.085 237.4 14.1 236 9
2011-04-05 07:31:39 51°13.186 2°51.065 236.1 14.1 235 9
2011-04-05 07:31:44 51°13.175 2°51.039 235.2 14.1 234 8.9
2011-04-05 07:31:49 51°13.164 2°51.014 234.3 14.1 234 8.9
2011-04-05 07:31:55 51°13.149 2°50.984 233.8 14.1 233 8.9
2011-04-05 07:31:59 51°13.14 2°50.964 233.7 14.1 233 9
2011-04-05 07:32:04 51°13.129 2°50.939 233.4 14 234 9
2011-04-05 07:32:09 51°13.117 2°50.914 233.3 14 234 9
2011-04-05 07:32:15 51°13.104 2°50.884 233.6 14.1 234 8.9
2011-04-05 07:32:19 51°13.094 2°50.864 234.1 14.1 235 9
2011-04-05 07:32:24 51°13.083 2°50.838 235 14.1 236 8.9
2011-04-05 07:32:30 51°13.071 2°50.807 236.4 14.1 237 9
2011-04-05 07:32:35 51°13.06 2°50.781 237.5 14.1 238 9.1
2011-04-05 07:32:39 51°13.052 2°50.76 238.3 14.1 238 8.9
2011-04-05 07:32:44 51°13.042 2°50.733 238.5 14 238 9
2011-04-05 07:32:49 51°13.031 2°50.708 238.3 14.1 237 9
2011-04-05 07:32:54 51°13.02 2°50.682 237.4 14.1 236 9
2011-04-05 07:32:59 51°13.009 2°50.656 236.3 14.1 235 9.1
2011-04-05 07:33:04 51°12.998 2°50.631 235.4 14 235 9.1
2011-04-05 07:33:09 51°12.987 2°50.605 234.9 14 235 9
2011-04-05 07:33:15 51°12.973 2°50.574 234.5 14.1 235 9.1
2011-04-05 07:33:19 51°12.964 2°50.554 234.9 14.1 235 9
2011-04-05 07:33:24 51°12.954 2°50.529 235.5 14.1 235 9.2
2011-04-05 07:33:29 51°12.942 2°50.503 235.4 14.1 236 9
2011-04-05 07:33:34 51°12.932 2°50.477 236.6 14.1 237 9.1
2011-04-05 07:33:39 51°12.921 2°50.45 237.3 14.1 238 9.1
2011-04-05 07:33:44 51°12.911 2°50.424 238 14.1 238 9.2
2011-04-05 07:33:49 51°12.901 2°50.398 238.9 14 238 9.2
2011-04-05 07:33:54 51°12.891 2°50.371 239 14.1 238 9.1
2011-04-05 07:33:59 51°12.88 2°50.345 238.5 14.1 238 9.1
2011-04-05 07:34:04 51°12.87 2°50.319 238.5 14.1 238 8.9
2011-04-05 07:34:09 51°12.859 2°50.293 238.7 14 238 9.1
2011-04-05 07:34:14 51°12.849 2°50.266 238.3 14 237 9
2011-04-05 07:34:19 51°12.838 2°50.24 237.8 14.1 237 9.1
2011-04-05 07:34:24 51°12.828 2°50.215 237.5 14 237 9.1
2011-04-05 07:34:29 51°12.817 2°50.189 236.8 14 236 9
2011-04-05 07:34:34 51°12.806 2°50.163 236.1 14 237 9
2011-04-05 07:34:39 51°12.795 2°50.137 236.9 14 238 9
2011-04-05 07:34:43 51°12.787 2°50.116 238.2 14.1 238 9.1
2011-04-05 07:34:49 51°12.775 2°50.084 239.1 14 240 9
2011-04-05 07:34:54 51°12.766 2°50.057 240 14 240 9.2
2011-04-05 07:34:59 51°12.756 2°50.03 241.1 14.1 241 9
2011-04-05 07:35:03 51°12.749 2°50.008 242 14.1 241 9
2011-04-05 07:35:09 51°12.738 2°49.975 242.7 14 242 8.7
2011-04-05 07:35:14 51°12.729 2°49.948 243.2 14.1 242 8.8
2011-04-05 07:35:19 51°12.72 2°49.92 243.2 14.1 242 9
2011-04-05 07:35:24 51°12.71 2°49.893 243.2 14.1 242 9.2
2011-04-05 07:35:29 51°12.701 2°49.866 242.8 14.1 242 9
2011-04-05 07:35:34 51°12.691 2°49.839 242.5 14.1 241 8.9
2011-04-05 07:35:39 51°12.682 2°49.812 241.8 14.1 241 9.1
2011-04-05 07:35:44 51°12.672 2°49.786 241 14 238 9.1
2011-04-05 07:35:49 51°12.662 2°49.759 239.8 14 238 9.1
2011-04-05 07:35:54 51°12.651 2°49.733 238.5 14 237 9.1
2011-04-05 07:35:59 51°12.64 2°49.707 237.8 14 237 9
2011-04-05 07:36:04 51°12.63 2°49.681 237.4 14.1 238 9.2
2011-04-05 07:36:09 51°12.619 2°49.655 237.6 14 237 9.1
2011-04-05 07:36:14 51°12.609 2°49.629 238.1 14 238 8.5
2011-04-05 07:36:19 51°12.599 2°49.603 238.4 14 239 9.3
2011-04-05 07:36:24 51°12.589 2°49.576 239.5 14 240 9
2011-04-05 07:36:29 51°12.58 2°49.549 240.4 14 240 9
2011-04-05 07:36:34 51°12.57 2°49.522 241.2 14 241 9.1
2011-04-05 07:36:39 51°12.561 2°49.495 241.6 14 241 8.9
2011-04-05 07:36:43 51°12.553 2°49.473 242.3 14 241 9
2011-04-05 07:36:49 51°12.542 2°49.441 242.5 14 241 9
2011-04-05 07:36:54 51°12.533 2°49.414 242.5 14 241 9.1
2011-04-05 07:36:59 51°12.523 2°49.387 241.8 14 240 9
2011-04-05 07:37:04 51°12.513 2°49.361 240.9 14 239 9.2
2011-04-05 07:37:10 51°12.501 2°49.329 240.1 14 239 8.9
2011-04-05 07:37:15 51°12.491 2°49.303 239.3 13.9 238 8.9
2011-04-05 07:37:19 51°12.483 2°49.282 238.9 13.9 238 9
2011-04-05 07:37:24 51°12.472 2°49.256 238.5 14 238 8.9
2011-04-05 07:37:29 51°12.462 2°49.229 238.2 14 238 9
2011-04-05 07:37:34 51°12.451 2°49.203 238.3 13.9 237 8.9
2011-04-05 07:37:39 51°12.441 2°49.178 238 14 238 8.9
2011-04-05 07:37:43 51°12.433 2°49.157 237.9 14 237 8.8
2011-04-05 07:37:49 51°12.42 2°49.126 237.8 13.9 238 8.9
2011-04-05 07:37:54 51°12.41 2°49.099 238.1 13.9 240 9
2011-04-05 07:37:59 51°12.401 2°49.072 239.9 13.9 241 8.9
2011-04-05 07:38:04 51°12.392 2°49.045 241.2 14 242 9
2011-04-05 07:38:09 51°12.383 2°49.017 242.9 14 245 8.9
2011-04-05 07:38:14 51°12.375 2°48.989 245.4 14 246 9
2011-04-05 07:38:19 51°12.368 2°48.961 246.8 14 247 8.9
2011-04-05 07:38:24 51°12.36 2°48.932 249.6 14 249 9
2011-04-05 07:38:29 51°12.354 2°48.903 250.9 14 251 9
2011-04-05 07:38:34 51°12.348 2°48.873 252.2 14.1 251 9.1
2011-04-05 07:38:39 51°12.341 2°48.844 253.1 14.1 252 9.1
2011-04-05 07:38:43 51°12.336 2°48.821 253.4 14 252 9.1
2011-04-05 07:38:49 51°12.329 2°48.785 253.7 14.1 251 9.1
2011-04-05 07:38:54 51°12.322 2°48.756 253.5 14.1 251 9.3
2011-04-05 07:38:59 51°12.316 2°48.726 253.2 14.1 250 9.4
2011-04-05 07:39:04 51°12.309 2°48.697 252 14.1 250 9.2
2011-04-05 07:39:09 51°12.302 2°48.668 251.3 14.1 249 9.4
2011-04-05 07:39:15 51°12.294 2°48.633 250.5 14.1 248 9.2
2011-04-05 07:39:19 51°12.288 2°48.609 250.2 14.1 248 9.5
2011-04-05 07:39:24 51°12.281 2°48.58 250.4 14.1 249 9.5
2011-04-05 07:39:29 51°12.274 2°48.552 250.5 14.1 249 9.3
2011-04-05 07:39:34 51°12.267 2°48.523 250.5 14.1 249 9.5
2011-04-05 07:39:39 51°12.26 2°48.494 251 14.1 250 9.6
2011-04-05 07:39:43 51°12.254 2°48.471 251.1 14 248 9.4
2011-04-05 07:39:49 51°12.246 2°48.436 250.5 14.1 248 9.5
2011-04-05 07:39:54 51°12.238 2°48.407 249.8 14.1 248 9.7
2011-04-05 07:39:59 51°12.23 2°48.378 249.2 14.2 247 9.7
2011-04-05 07:40:04 51°12.223 2°48.35 248.9 14.1 247 9.7
2011-04-05 07:40:09 51°12.215 2°48.321 248.5 14.1 247 9.6
2011-04-05 07:40:14 51°12.207 2°48.292 248.4 14.2 248 9.7
2011-04-05 07:40:19 51°12.2 2°48.263 248.8 14.2 248 9.7
2011-04-05 07:40:24 51°12.193 2°48.234 249.4 14.2 248 9.5
2011-04-05 07:40:29 51°12.186 2°48.204 249.9 14.2 249 9.7
2011-04-05 07:40:34 51°12.18 2°48.175 250.4 14.2 250 9.7
2011-04-05 07:40:39 51°12.173 2°48.145 251.3 14.1 251 9.8
2011-04-05 07:40:43 51°12.168 2°48.122 252.4 14.1 250 9.7
2011-04-05 07:40:49 51°12.16 2°48.087 252.6 14.1 252 10
2011-04-05 07:40:54 51°12.154 2°48.057 253.1 14.2 251 10
2011-04-05 07:40:59 51°12.147 2°48.027 253.1 14.1 251 10
2011-04-05 07:41:04 51°12.141 2°47.998 252.6 14.2 251 10.1
2011-04-05 07:41:09 51°12.134 2°47.969 252.2 14.2 250 10.1
2011-04-05 07:41:14 51°12.127 2°47.94 251.5 14.1 249 10.2
2011-04-05 07:41:19 51°12.12 2°47.911 250.8 14.1 249 10.1
2011-04-05 07:41:24 51°12.112 2°47.882 250.1 14.1 248 10.2
2011-04-05 07:41:29 51°12.105 2°47.853 250 14.1 249 10.1
2011-04-05 07:41:34 51°12.099 2°47.824 250.6 14.1 249 10.1
2011-04-05 07:41:39 51°12.092 2°47.794 251.1 14.1 250 10.2
2011-04-05 07:41:43 51°12.086 2°47.771 251.5 14.1 250 10.2
2011-04-05 07:41:49 51°12.078 2°47.736 251.8 14.1 250 10.4
2011-04-05 07:41:54 51°12.072 2°47.707 251.9 14.1 250 10
2011-04-05 07:41:59 51°12.065 2°47.678 251.9 14.2 250 10.3
2011-04-05 07:42:03 51°12.06 2°47.654 251.8 14.1 250 10.2
2011-04-05 07:42:09 51°12.051 2°47.619 251.4 14.2 249 10.3
2011-04-05 07:42:14 51°12.044 2°47.59 250.9 14.1 249 10.3
2011-04-05 07:42:19 51°12.037 2°47.561 250 14.1 247 10.3
2011-04-05 07:42:24 51°12.029 2°47.532 249 14.2 248 10.3
2011-04-05 07:42:29 51°12.021 2°47.503 248.4 14.2 247 10.4
2011-04-05 07:42:34 51°12.014 2°47.474 248.5 14.2 248 10.4
2011-04-05 07:42:39 51°12.006 2°47.445 248.6 14.2 248 10.4
2011-04-05 07:42:43 51°12.001 2°47.422 249 14.2 248 10.5
2011-04-05 07:42:49 51°11.992 2°47.387 249.6 14.2 249 10.5
2011-04-05 07:42:54 51°11.985 2°47.358 250 14.2 250 10.5
2011-04-05 07:42:59 51°11.978 2°47.328 250.9 14.2 250 10.6
2011-04-05 07:43:04 51°11.972 2°47.299 251.2 14.2 250 10.4
2011-04-05 07:43:09 51°11.965 2°47.269 251.2 14.2 250 10.6
2011-04-05 07:43:14 51°11.958 2°47.24 251.4 14.2 250 10.6
2011-04-05 07:43:19 51°11.952 2°47.21 251.7 14.2 250 10.5
2011-04-05 07:43:23 51°11.946 2°47.187 251.6 14.2 250 10.5
2011-04-05 07:43:29 51°11.938 2°47.151 251.3 14.2 250 10.5
2011-04-05 07:43:34 51°11.931 2°47.122 251.1 14.2 249 10.6
2011-04-05 07:43:39 51°11.924 2°47.093 250.6 14.2 249 10.7
2011-04-05 07:43:44 51°11.917 2°47.064 250.2 14.2 249 10.6
2011-04-05 07:43:49 51°11.91 2°47.034 250.1 14.2 249 10.8
2011-04-05 07:43:54 51°11.903 2°47.005 250.1 14.2 249 10.6
2011-04-05 07:43:59 51°11.896 2°46.976 250 14.2 249 10.8
2011-04-05 07:44:03 51°11.89 2°46.952 250 14.2 249 10.8
2011-04-05 07:44:09 51°11.882 2°46.917 250.3 14.2 249 10.7
2011-04-05 07:44:14 51°11.875 2°46.888 250.1 14.2 249 10.8
2011-04-05 07:44:19 51°11.868 2°46.858 249.8 14.2 249 10.7
2011-04-05 07:44:24 51°11.86 2°46.829 249.8 14.2 249 10.9
2011-04-05 07:44:29 51°11.853 2°46.8 249.8 14.3 248 10.9
2011-04-05 07:44:34 51°11.846 2°46.771 249.7 14.2 249 10.7
2011-04-05 07:44:39 51°11.839 2°46.742 249.9 14.2 249 10.9
2011-04-05 07:44:43 51°11.833 2°46.718 250 14.2 249 10.9
2011-04-05 07:44:49 51°11.825 2°46.683 250 14.2 249 10.7
2011-04-05 07:44:54 51°11.818 2°46.653 250.2 14.3 249 10.8
2011-04-05 07:44:59 51°11.811 2°46.624 250.3 14.3 250 10.8
2011-04-05 07:45:04 51°11.804 2°46.594 250.5 14.3 249 10.9
2011-04-05 07:45:09 51°11.797 2°46.565 250.5 14.3 250 10.9
2011-04-05 07:45:14 51°11.79 2°46.535 250.5 14.3 250 10.9
2011-04-05 07:45:19 51°11.783 2°46.506 250.7 14.2 249 10.8
2011-04-05 07:45:23 51°11.778 2°46.482 250.6 14.3 249 10.8
2011-04-05 07:45:29 51°11.769 2°46.446 250.5 14.3 249 10.9
2011-04-05 07:45:34 51°11.762 2°46.417 250.3 14.3 249 11
2011-04-05 07:45:39 51°11.755 2°46.387 250.3 14.3 249 10.9
2011-04-05 07:45:44 51°11.748 2°46.358 250.4 14.2 249 11
2011-04-05 07:45:49 51°11.741 2°46.329 250.5 14.2 249 10.9
2011-04-05 07:45:54 51°11.735 2°46.299 250.6 14.2 250 11
2011-04-05 07:45:59 51°11.728 2°46.269 251 14.3 251 11
2011-04-05 07:46:04 51°11.722 2°46.239 251.7 14.2 251 11
2011-04-05 07:46:09 51°11.715 2°46.21 251.8 14.2 250 10.9
2011-04-05 07:46:15 51°11.707 2°46.175 251.3 14.2 250 11
2011-04-05 07:46:19 51°11.702 2°46.151 251.2 14.2 250 10.9
2011-04-05 07:46:24 51°11.695 2°46.122 251.2 14.1 250 11
2011-04-05 07:46:29 51°11.688 2°46.092 251.2 14.1 250 11
2011-04-05 07:46:34 51°11.682 2°46.063 251.4 14.1 250 11
2011-04-05 07:46:39 51°11.675 2°46.034 251.4 14.1 250 11.1
2011-04-05 07:46:44 51°11.668 2°46.004 251.2 14.2 249 10.9
2011-04-05 07:46:49 51°11.661 2°45.975 250.7 14.2 249 11.1
2011-04-05 07:46:54 51°11.654 2°45.946 250.1 14.2 248 10.9
2011-04-05 07:46:59 51°11.647 2°45.917 249.6 14.1 249 10.9
2011-04-05 07:47:04 51°11.639 2°45.888 249.6 14.2 248 11
2011-04-05 07:47:09 51°11.632 2°45.859 249.6 14.2 249 11
2011-04-05 07:47:14 51°11.625 2°45.83 250.1 14.2 249 10.9
2011-04-05 07:47:19 51°11.619 2°45.8 250.3 14.2 249 11
2011-04-05 07:47:23 51°11.613 2°45.777 250.5 14.2 250 11
2011-04-05 07:47:29 51°11.605 2°45.741 250.8 14.2 249 10.9
2011-04-05 07:47:34 51°11.598 2°45.712 250.2 14.2 249 10.9
2011-04-05 07:47:39 51°11.591 2°45.683 249.9 14.2 249 10.9
2011-04-05 07:47:44 51°11.583 2°45.654 249.8 14.2 248 10.9
2011-04-05 07:47:49 51°11.576 2°45.625 249.5 14.2 248 10.8
2011-04-05 07:47:54 51°11.569 2°45.596 249.2 14.2 248 10.9
2011-04-05 07:47:59 51°11.562 2°45.567 249.1 14.2 248 10.9
2011-04-05 07:48:04 51°11.554 2°45.538 249 14.2 248 10.9
2011-04-05 07:48:09 51°11.547 2°45.509 249.3 14.2 249 10.9
2011-04-05 07:48:14 51°11.54 2°45.479 249.9 14.1 250 10.9
2011-04-05 07:48:19 51°11.534 2°45.45 250.5 14.2 250 10.9
2011-04-05 07:48:23 51°11.528 2°45.426 250.7 14.2 250 10.9
2011-04-05 07:48:29 51°11.52 2°45.391 250.9 14.2 250 11
2011-04-05 07:48:34 51°11.514 2°45.362 251.1 14.2 250 10.8
2011-04-05 07:48:39 51°11.507 2°45.333 251.1 14.2 249 10.9
2011-04-05 07:48:44 51°11.5 2°45.303 250.7 14.2 250 10.9
2011-04-05 07:48:49 51°11.493 2°45.274 250.7 14.2 249 10.9
2011-04-05 07:48:55 51°11.485 2°45.239 250.5 14.1 250 10.9
2011-04-05 07:48:59 51°11.479 2°45.215 250.5 14.1 250 11
2011-04-05 07:49:04 51°11.472 2°45.186 250.5 14.1 250 10.9
2011-04-05 07:49:09 51°11.465 2°45.157 250.4 14.1 249 11
2011-04-05 07:49:14 51°11.458 2°45.128 249.7 14.1 248 10.9
2011-04-05 07:49:19 51°11.451 2°45.099 249.1 14.2 249 10.9
2011-04-05 07:49:23 51°11.445 2°45.075 249.1 14.2 248 10.9
2011-04-05 07:49:29 51°11.436 2°45.041 249 14.1 248 10.9
2011-04-05 07:49:34 51°11.429 2°45.012 249 14.1 249 10.8
2011-04-05 07:49:39 51°11.422 2°44.982 249.3 14.2 249 11
2011-04-05 07:49:44 51°11.415 2°44.953 249.9 14.3 250 10.9
2011-04-05 07:49:49 51°11.409 2°44.923 250.7 14.2 250 10.9
2011-04-05 07:49:54 51°11.402 2°44.894 251.2 14.2 251 10.9
2011-04-05 07:49:59 51°11.396 2°44.864 251.8 14.2 251 10.9
2011-04-05 07:50:04 51°11.389 2°44.835 251.9 14.2 251 10.9
2011-04-05 07:50:09 51°11.382 2°44.805 251.8 14.2 250 10.8
2011-04-05 07:50:14 51°11.375 2°44.776 251.2 14.2 249 11
2011-04-05 07:50:19 51°11.368 2°44.747 250.3 14.2 249 10.9
2011-04-05 07:50:24 51°11.361 2°44.717 249.6 14.2 249 10.9
2011-04-05 07:50:30 51°11.352 2°44.682 249.1 14.2 248 11
2011-04-05 07:50:35 51°11.345 2°44.653 249 14.2 248 10.9
2011-04-05 07:50:39 51°11.339 2°44.63 248.9 14.3 249 10.9
2011-04-05 07:50:44 51°11.332 2°44.601 249.2 14.2 249 10.9
2011-04-05 07:50:49 51°11.325 2°44.571 249.8 14.2 249 10.9
2011-04-05 07:50:54 51°11.319 2°44.542 250.4 14.2 250 10.9
2011-04-05 07:50:59 51°11.312 2°44.512 250.7 14.2 250 10.8
2011-04-05 07:51:03 51°11.307 2°44.489 251.1 14.2 250 10.8
2011-04-05 07:51:09 51°11.299 2°44.454 251.2 14.1 250 10.9
2011-04-05 07:51:14 51°11.292 2°44.424 251.2 14.1 250 10.9
2011-04-05 07:51:19 51°11.285 2°44.395 251 14.2 250 10.9
2011-04-05 07:51:24 51°11.278 2°44.366 250.8 14.1 250 10.9
2011-04-05 07:51:29 51°11.271 2°44.337 250.3 14.1 249 10.8
2011-04-05 07:51:34 51°11.265 2°44.308 250.1 14.1 249 10.9
2011-04-05 07:51:39 51°11.258 2°44.279 249.8 14.1 249 10.8
2011-04-05 07:51:44 51°11.251 2°44.25 249.5 14.1 249 10.9
2011-04-05 07:51:49 51°11.244 2°44.221 249.7 14.1 249 10.8
2011-04-05 07:51:54 51°11.237 2°44.191 250 14.2 250 10.9
2011-04-05 07:51:59 51°11.23 2°44.162 250.5 14.1 250 10.7
2011-04-05 07:52:03 51°11.225 2°44.139 250.7 14.1 250 10.8
2011-04-05 07:52:09 51°11.217 2°44.103 250.7 14.2 251 10.9
2011-04-05 07:52:14 51°11.21 2°44.074 251 14.2 250 10.8
2011-04-05 07:52:19 51°11.204 2°44.045 251.1 14.2 250 10.8
2011-04-05 07:52:24 51°11.197 2°44.015 251.1 14.2 250 10.8
2011-04-05 07:52:29 51°11.191 2°43.986 250.9 14.2 250 10.9
2011-04-05 07:52:34 51°11.184 2°43.956 251 14.2 251 10.8
2011-04-05 07:52:39 51°11.177 2°43.927 251.1 14.2 251 10.8
2011-04-05 07:52:44 51°11.171 2°43.898 251.1 14.2 250 10.8
2011-04-05 07:52:49 51°11.164 2°43.868 250.7 14.1 249 10.8
2011-04-05 07:52:54 51°11.157 2°43.839 250 14.1 249 10.9
2011-04-05 07:52:59 51°11.15 2°43.81 249.7 14.1 249 10.8
2011-04-05 07:53:04 51°11.143 2°43.781 249.8 14.1 249 10.9
2011-04-05 07:53:09 51°11.136 2°43.752 249.8 14.1 249 10.8
2011-04-05 07:53:15 51°11.128 2°43.717 249.9 14.1 250 10.8
2011-04-05 07:53:19 51°11.123 2°43.693 250.5 14.1 250 10.8
2011-04-05 07:53:24 51°11.116 2°43.664 250.7 14.1 251 10.8
2011-04-05 07:53:29 51°11.111 2°43.634 251.8 14 254 10.7
2011-04-05 07:53:34 51°11.106 2°43.604 254.3 14 256 10.8
2011-04-05 07:53:39 51°11.101 2°43.574 256.9 14 256 10.9
2011-04-05 07:53:43 51°11.098 2°43.55 258.7 14 258 10.9
2011-04-05 07:53:49 51°11.093 2°43.514 259.6 14 258 10.8
2011-04-05 07:53:54 51°11.09 2°43.483 260.5 14 259 10.8
2011-04-05 07:53:59 51°11.086 2°43.453 261.1 14.1 260 10.9
2011-04-05 07:54:04 51°11.083 2°43.422 261.4 14.1 260 10.9
2011-04-05 07:54:09 51°11.079 2°43.392 261.8 14 260 10.8
2011-04-05 07:54:14 51°11.076 2°43.361 261.7 14 259 10.8
2011-04-05 07:54:19 51°11.072 2°43.33 261.6 14.1 260 11
2011-04-05 07:54:24 51°11.068 2°43.3 261.3 14.1 259 10.8
2011-04-05 07:54:29 51°11.064 2°43.269 260.5 14.1 258 10.7
2011-04-05 07:54:34 51°11.06 2°43.239 259.8 14.1 258 10.9
2011-04-05 07:54:39 51°11.056 2°43.209 259.7 14.1 258 10.8
2011-04-05 07:54:43 51°11.053 2°43.184 259.9 14.1 258 11
2011-04-05 07:54:49 51°11.049 2°43.147 260 14.2 258 11
2011-04-05 07:54:54 51°11.044 2°43.117 260 14.1 259 10.9
2011-04-05 07:54:59 51°11.041 2°43.086 260.6 14.2 260 10.9
2011-04-05 07:55:04 51°11.037 2°43.055 260.7 14.2 260 11.1
2011-04-05 07:55:09 51°11.034 2°43.024 261.1 14.2 261 10.8
2011-04-05 07:55:15 51°11.031 2°42.987 263.4 14.2 264 10.9
2011-04-05 07:55:19 51°11.03 2°42.962 265.7 14.1 265 10.9
2011-04-05 07:55:24 51°11.029 2°42.931 268.2 14.2 267 11
2011-04-05 07:55:29 51°11.029 2°42.9 269.6 14.2 269 11
2011-04-05 07:55:34 51°11.028 2°42.869 271.1 14.1 269 11.1
2011-04-05 07:55:39 51°11.028 2°42.837 272.1 14.1 269 11
2011-04-05 07:55:43 51°11.028 2°42.814 272.5 13.2 270 11
2011-04-05 07:55:49 51°11.028 2°42.78 272.9 12.4 270 11.1
2011-04-05 07:55:54 51°11.028 2°42.754 273.1 11.8 270 11.2
2011-04-05 07:55:59 51°11.028 2°42.729 273 11.2 269 11.3
2011-04-05 07:56:04 51°11.028 2°42.706 272.2 10.4 268 11.2
2011-04-05 07:56:09 51°11.027 2°42.684 271.1 9.8 268 11.3
2011-04-05 07:56:14 51°11.026 2°42.664 270.3 9.2 266 11.3
2011-04-05 07:56:19 51°11.025 2°42.644 268.1 8.8 265 11.3
2011-04-05 07:56:24 51°11.024 2°42.626 265.7 8.2 263 11.3
2011-04-05 07:56:29 51°11.022 2°42.609 264.2 7.8 262 11.3
2011-04-05 07:56:34 51°11.02 2°42.593 262.1 7.3 260 11.3
2011-04-05 07:56:39 51°11.019 2°42.578 260.8 7.1 260 11.4
2011-04-05 07:56:44 51°11.017 2°42.564 259.3 6.6 258 11.2
2011-04-05 07:56:49 51°11.015 2°42.55 258.5 6.4 258 11.4
2011-04-05 07:56:54 51°11.014 2°42.537 257.9 6.2 257 11.4
2011-04-05 07:56:59 51°11.012 2°42.523 257.7 6.2 258 11.3
2011-04-05 07:57:04 51°11.01 2°42.51 258 6.1 260 11.2
2011-04-05 07:57:09 51°11.009 2°42.497 259.2 5.9 261 11.2
2011-04-05 07:57:14 51°11.008 2°42.484 262.4 5.8 266 11.3
2011-04-05 07:57:19 51°11.008 2°42.471 266.9 5.8 267 11.3
2011-04-05 07:57:23 51°11.008 2°42.461 272.4 5.7 273 11.3
2011-04-05 07:57:29 51°11.008 2°42.446 276.1 5.6 275 11.2
2011-04-05 07:57:34 51°11.01 2°42.434 280.9 5.5 279 11.3
2011-04-05 07:57:39 51°11.011 2°42.422 284.7 5.5 281 11.2
2011-04-05 07:57:44 51°11.013 2°42.411 288.8 5.4 283 11.4
2011-04-05 07:57:49 51°11.015 2°42.399 291.8 5.4 286 11.3
2011-04-05 07:57:54 51°11.017 2°42.388 295.7 5.3 290 11.5
2011-04-05 07:57:59 51°11.02 2°42.377 299.4 5.2 292 11.3
2011-04-05 07:58:04 51°11.023 2°42.366 302 5.3 294 11.2
2011-04-05 07:58:09 51°11.026 2°42.356 303.4 5.3 294 11.3
2011-04-05 07:58:14 51°11.029 2°42.345 304 5.3 294 11.3
2011-04-05 07:58:19 51°11.032 2°42.335 304.1 5.3 294 11.3
2011-04-05 07:58:23 51°11.034 2°42.326 302.8 5.3 293 11.2
2011-04-05 07:58:29 51°11.037 2°42.313 301.8 5.3 292 11.1
2011-04-05 07:58:34 51°11.04 2°42.302 300.3 5.3 291 11.3
2011-04-05 07:58:39 51°11.042 2°42.291 298.7 5.3 290 11.2
2011-04-05 07:58:44 51°11.045 2°42.28 296.7 5.2 288 11.2
2011-04-05 07:58:49 51°11.047 2°42.269 295.4 5.2 286 11.1
2011-04-05 07:58:54 51°11.049 2°42.258 293.8 5.3 285 11.1
2011-04-05 07:58:59 51°11.051 2°42.246 292.2 5.3 284 11.3
2011-04-05 07:59:04 51°11.052 2°42.235 290.4 5.2 283 11.1
2011-04-05 07:59:09 51°11.053 2°42.224 289.2 5.3 282 11.1
2011-04-05 07:59:14 51°11.055 2°42.212 288.1 5.2 281 11.4
2011-04-05 07:59:19 51°11.056 2°42.201 287.1 5.2 281 11.2
2011-04-05 07:59:24 51°11.058 2°42.189 286.2 5.2 280 11.3
2011-04-05 07:59:29 51°11.059 2°42.178 285.2 5.3 279 11.3
2011-04-05 07:59:35 51°11.06 2°42.164 284.2 5.3 279 11.1
2011-04-05 07:59:39 51°11.061 2°42.155 283.2 5.2 278 11
2011-04-05 07:59:44 51°11.062 2°42.144 282.4 5.2 277 11.1
2011-04-05 07:59:49 51°11.063 2°42.132 281.7 5.3 277 11.1
2011-04-05 07:59:54 51°11.064 2°42.121 281.1 5.2 278 11.2
2011-04-05 07:59:59 51°11.065 2°42.11 281.1 5.1 277 11.2
2011-04-05 08:00:03 51°11.066 2°42.101 283.2 5 281 11
2011-04-05 08:00:09 51°11.068 2°42.088 286.9 4.9 283 11
2011-04-05 08:00:14 51°11.07 2°42.078 291.6 4.6 287 11
2011-04-05 08:00:19 51°11.071 2°42.069 295 4.4 287 11
2011-04-05 08:00:24 51°11.073 2°42.06 297 4.3 289 11.1
2011-04-05 08:00:29 51°11.075 2°42.052 298.5 4 289 11
2011-04-05 08:00:34 51°11.077 2°42.044 299.7 3.8 291 10.9
2011-04-05 08:00:39 51°11.079 2°42.036 300.8 3.7 291 11.1
2011-04-05 08:00:44 51°11.08 2°42.029 301.9 3.5 292 11
2011-04-05 08:00:49 51°11.082 2°42.022 302.9 3.3 292 11
2011-04-05 08:00:54 51°11.084 2°42.015 303.9 3.1 293 10.9
2011-04-05 08:00:59 51°11.085 2°42.01 304.9 3 293 10.9
2011-04-05 08:01:03 51°11.087 2°42.005 305.8 2.7 293 10.9
2011-04-05 08:01:09 51°11.088 2°41.999 306.4 2.5 293 10.9
2011-04-05 08:01:14 51°11.089 2°41.994 306.7 2.2 291 10.9
2011-04-05 08:01:19 51°11.09 2°41.99 306.6 2 293 10.9
2011-04-05 08:01:24 51°11.091 2°41.986 306.3 1.7 289 10.9
2011-04-05 08:01:29 51°11.092 2°41.983 305.7 1.7 291 11
2011-04-05 08:01:34 51°11.093 2°41.979 305.6 1.7 290 11
2011-04-05 08:01:39 51°11.094 2°41.976 305.4 1.7 292 11
2011-04-05 08:01:44 51°11.095 2°41.973 304.9 1.6 292 11
2011-04-05 08:01:49 51°11.096 2°41.97 304.5 1.6 291 10.9
2011-04-05 08:01:54 51°11.096 2°41.966 303.5 1.6 290 11
2011-04-05 08:01:59 51°11.097 2°41.963 302.7 1.6 291 10.9
2011-04-05 08:02:03 51°11.097 2°41.96 301.6 1.6 289 10.9
2011-04-05 08:02:09 51°11.098 2°41.957 300.6 1.5 290 10.9
2011-04-05 08:02:14 51°11.099 2°41.954 299.5 1.4 288 10.9
2011-04-05 08:02:19 51°11.1 2°41.95 298.4 1.4 288 11
2011-04-05 08:02:24 51°11.1 2°41.947 297.4 1.5 286 10.9
2011-04-05 08:02:29 51°11.101 2°41.944 296.2 1.4 287 10.9
2011-04-05 08:02:34 51°11.101 2°41.941 294.9 1.4 284 10.9
2011-04-05 08:02:39 51°11.102 2°41.938 294 1.4 285 10.9
2011-04-05 08:02:44 51°11.102 2°41.935 292.9 1.4 284 10.9
2011-04-05 08:02:49 51°11.103 2°41.932 291.9 1.4 284 11
2011-04-05 08:02:54 51°11.103 2°41.929 290.9 1.3 282 10.9
2011-04-05 08:02:59 51°11.103 2°41.927 290 1.3 282 10.8
2011-04-05 08:03:04 51°11.104 2°41.924 289 1.4 283 10.9
2011-04-05 08:03:09 51°11.104 2°41.921 288.2 1.3 282 10.9
2011-04-05 08:03:14 51°11.104 2°41.918 287.6 1.2 283 10.9
2011-04-05 08:03:19 51°11.105 2°41.915 287.2 1.2 281 11
2011-04-05 08:03:24 51°11.105 2°41.912 286.8 1.3 284 10.8
2011-04-05 08:03:29 51°11.106 2°41.909 286.6 1.2 283 10.8
2011-04-05 08:03:34 51°11.106 2°41.907 286.3 1.2 283 10.8
2011-04-05 08:03:39 51°11.107 2°41.904 286.1 1.2 282 10.8
2011-04-05 08:03:43 51°11.107 2°41.901 285.9 1.2 283 10.9
2011-04-05 08:03:49 51°11.108 2°41.898 285.8 1.2 281 10.9
2011-04-05 08:03:54 51°11.108 2°41.896 285.5 1.2 281 10.9
2011-04-05 08:03:59 51°11.108 2°41.893 285.4 1.1 281 10.9
2011-04-05 08:04:04 51°11.108 2°41.891 285.2 1.1 280 10.8
2011-04-05 08:04:09 51°11.109 2°41.888 284.9 1.2 281 10.8
2011-04-05 08:04:15 51°11.109 2°41.885 284.7 1.2 281 10.8
2011-04-05 08:04:19 51°11.109 2°41.883 284.6 1.1 281 10.8
2011-04-05 08:04:24 51°11.11 2°41.88 284.5 1.2 282 10.8
2011-04-05 08:04:29 51°11.11 2°41.878 284.5 1.1 282 10.8
2011-04-05 08:04:34 51°11.11 2°41.876 284.5 1.1 279 10.9
2011-04-05 08:04:39 51°11.11 2°41.874 284.4 1.1 280 10.8
2011-04-05 08:04:43 51°11.111 2°41.872 284.5 1.1 279 10.8
2011-04-05 08:04:49 51°11.111 2°41.869 284.5 1.1 284 10.8
2011-04-05 08:04:54 51°11.112 2°41.867 284.5 1.1 283 10.8
2011-04-05 08:04:59 51°11.112 2°41.864 284.6 1.1 285 10.8
2011-04-05 08:05:04 51°11.112 2°41.862 285 1.1 285 10.8
2011-04-05 08:05:09 51°11.113 2°41.86 285.5 1.1 287 10.7
2011-04-05 08:05:14 51°11.113 2°41.857 286.1 1.1 286 10.8
2011-04-05 08:05:19 51°11.113 2°41.855 286.6 1 287 10.8
2011-04-05 08:05:24 51°11.114 2°41.853 287 1 284 10.8
2011-04-05 08:05:29 51°11.114 2°41.851 287.5 0.9 286 10.7
2011-04-05 08:05:34 51°11.114 2°41.849 288.2 0.9 284 10.8
2011-04-05 08:05:39 51°11.115 2°41.847 288.5 0.9 285 10.8
2011-04-05 08:05:44 51°11.115 2°41.846 289.2 0.9 287 10.8
2011-04-05 08:05:49 51°11.115 2°41.844 289.8 0.9 287 10.9
2011-04-05 08:05:54 51°11.116 2°41.842 290.4 0.9 291 10.9
2011-04-05 08:05:59 51°11.116 2°41.84 291 0.9 289 10.8
2011-04-05 08:06:04 51°11.117 2°41.838 291.4 0.9 290 10.8
2011-04-05 08:06:09 51°11.117 2°41.836 291.8 0.9 289 10.8
2011-04-05 08:06:14 51°11.118 2°41.834 292.2 0.9 292 10.8
2011-04-05 08:06:19 51°11.118 2°41.833 292.8 0.9 294 10.8
2011-04-05 08:06:23 51°11.118 2°41.831 293.3 0.9 296 10.8
2011-04-05 08:06:29 51°11.119 2°41.829 293.9 0.9 293 10.8
2011-04-05 08:06:34 51°11.119 2°41.828 294.5 0.9 298 10.8
2011-04-05 08:06:39 51°11.12 2°41.826 294.9 0.8 296 10.9
2011-04-05 08:06:44 51°11.12 2°41.825 295.5 0.8 297 10.9
2011-04-05 08:06:49 51°11.121 2°41.823 296.2 0.8 296 10.9
2011-04-05 08:06:54 51°11.121 2°41.822 296.9 0.8 299 10.9
2011-04-05 08:06:59 51°11.122 2°41.82 297.7 0.8 303 10.8
2011-04-05 08:07:04 51°11.122 2°41.819 298.7 0.8 298 10.8
2011-04-05 08:07:09 51°11.123 2°41.818 299.6 0.7 303 10.8
2011-04-05 08:07:14 51°11.123 2°41.816 300.6 0.7 298 10.9
2011-04-05 08:07:19 51°11.124 2°41.815 301.6 0.7 300 10.8
2011-04-05 08:07:23 51°11.124 2°41.814 302.6 0.7 300 10.9
2011-04-05 08:07:29 51°11.125 2°41.812 303.5 0.7 299 10.7
2011-04-05 08:07:34 51°11.125 2°41.811 304.5 0.7 297 10.7
2011-04-05 08:07:39 51°11.126 2°41.809 305.3 0.7 296 10.7
2011-04-05 08:07:44 51°11.126 2°41.808 305.9 0.7 297 10.7
2011-04-05 08:07:49 51°11.126 2°41.807 306.5 0.7 296 10.8
2011-04-05 08:07:54 51°11.127 2°41.805 307.2 0.7 298 10.8
2011-04-05 08:07:59 51°11.127 2°41.804 308 0.6 298 10.8
2011-04-05 08:08:04 51°11.127 2°41.803 308.6 0.6 295 10.8
2011-04-05 08:08:09 51°11.128 2°41.802 309.2 0.6 297 10.8
2011-04-05 08:08:14 51°11.128 2°41.8 309.4 0.6 296 10.8
2011-04-05 08:08:19 51°11.129 2°41.799 309.9 0.6 303 10.8
2011-04-05 08:08:24 51°11.129 2°41.798 310.1 0.6 299 10.8
2011-04-05 08:08:29 51°11.13 2°41.797 311 0.6 305 10.8
2011-04-05 08:08:35 51°11.13 2°41.796 311.7 0.6 299 10.8
2011-04-05 08:08:39 51°11.13 2°41.795 312.3 0.6 299 10.8
2011-04-05 08:08:44 51°11.131 2°41.794 312.8 0.6 298 10.7
2011-04-05 08:08:49 51°11.131 2°41.793 313 0.5 295 10.8
2011-04-05 08:08:54 51°11.131 2°41.791 313.3 0.6 292 10.7
2011-04-05 08:08:59 51°11.132 2°41.79 313.3 0.6 294 10.7
2011-04-05 08:09:03 51°11.132 2°41.789 313.3 0.6 292 10.7
2011-04-05 08:09:09 51°11.133 2°41.788 313.4 0.6 293 10.7
2011-04-05 08:09:14 51°11.133 2°41.786 313.5 0.6 290 10.7
2011-04-05 08:09:19 51°11.133 2°41.785 313.6 0.6 293 10.8
2011-04-05 08:09:24 51°11.133 2°41.784 313.6 0.6 295 10.8
2011-04-05 08:09:29 51°11.133 2°41.783 313.6 0.5 291 10.9
2011-04-05 08:09:34 51°11.134 2°41.782 313.8 0.6 295 10.9
2011-04-05 08:09:39 51°11.134 2°41.781 314 0.6 294 10.8
2011-04-05 08:09:44 51°11.135 2°41.779 314.1 0.6 294 10.9
2011-04-05 08:09:49 51°11.135 2°41.778 314.2 0.6 294 10.8
2011-04-05 08:09:54 51°11.135 2°41.777 314.2 0.6 296 10.9
2011-04-05 08:09:59 51°11.136 2°41.776 314.1 0.5 298 10.7
2011-04-05 08:10:03 51°11.136 2°41.776 314.2 0.6 301 10.8
2011-04-05 08:10:09 51°11.136 2°41.775 314.4 0.6 303 10.9
2011-04-05 08:10:14 51°11.136 2°41.774 314.5 0.5 289 10.9
2011-04-05 08:10:19 51°11.137 2°41.772 314.6 0.5 291 10.8
2011-04-05 08:10:24 51°11.137 2°41.771 314.7 0.5 290 10.8
2011-04-05 08:10:29 51°11.137 2°41.77 314.6 0.5 292 10.8
2011-04-05 08:10:34 51°11.138 2°41.769 314.5 0.6 292 10.8
2011-04-05 08:10:39 51°11.138 2°41.768 314.4 0.5 293 10.8
2011-04-05 08:10:44 51°11.138 2°41.766 314.4 0.6 298 10.8
2011-04-05 08:10:49 51°11.139 2°41.765 314.4 0.6 298 10.8
2011-04-05 08:10:54 51°11.139 2°41.764 314.7 0.6 297 10.8
2011-04-05 08:10:59 51°11.139 2°41.763 314.8 0.5 296 10.9
2011-04-05 08:11:03 51°11.14 2°41.762 314.7 0.6 290 10.9
2011-04-05 08:11:09 51°11.14 2°41.76 314.7 0.6 296 10.8
2011-04-05 08:11:14 51°11.141 2°41.759 314.7 0.6 294 10.8
2011-04-05 08:11:19 51°11.141 2°41.758 314.7 0.6 294 11
2011-04-05 08:11:24 51°11.141 2°41.756 314.4 0.6 298 11
2011-04-05 08:11:29 51°11.141 2°41.755 314.4 0.6 295 11
2011-04-05 08:11:34 51°11.141 2°41.754 314.4 0.6 296 11
2011-04-05 08:11:39 51°11.141 2°41.753 314.3 0.5 299 11
2011-04-05 08:11:44 51°11.141 2°41.752 314.4 0.5 297 11
2011-04-05 08:11:49 51°11.142 2°41.751 314.4 0.5 296 11
2011-04-05 08:11:54 51°11.142 2°41.75 314.8 0.6 291 11
2011-04-05 08:11:59 51°11.142 2°41.748 314.9 0.5 296 10.9
2011-04-05 08:12:04 51°11.143 2°41.747 314.9 0.6 290 10.7
2011-04-05 08:12:09 51°11.143 2°41.746 314.6 0.5 289 10.7
2011-04-05 08:12:14 51°11.143 2°41.745 314.4 0.5 292 10.8
2011-04-05 08:12:19 51°11.143 2°41.744 314.3 0.5 291 10.9
2011-04-05 08:12:24 51°11.144 2°41.742 314.3 0.5 294 11.1
2011-04-05 08:12:29 51°11.144 2°41.741 314.3 0.5 295 11
2011-04-05 08:12:34 51°11.144 2°41.74 314.4 0.5 295 10.9
2011-04-05 08:12:39 51°11.145 2°41.739 314.9 0.6 295 10.8
2011-04-05 08:12:43 51°11.145 2°41.739 315 0.5 292 10.7
2011-04-05 08:12:49 51°11.145 2°41.737 315.1 0.5 292 10.8
2011-04-05 08:12:54 51°11.146 2°41.736 315.1 0.6 289 10.9
2011-04-05 08:12:59 51°11.146 2°41.735 314.9 0.5 293 10.9
2011-04-05 08:13:04 51°11.146 2°41.734 314.7 0.5 293 11
2011-04-05 08:13:09 51°11.147 2°41.733 314.6 0.6 295 11
2011-04-05 08:13:15 51°11.147 2°41.732 314.4 0.5 294 11
2011-04-05 08:13:19 51°11.147 2°41.731 314.4 0.5 292 11
2011-04-05 08:13:24 51°11.148 2°41.73 314.2 0.5 292 11
2011-04-05 08:13:29 51°11.148 2°41.729 314 0.5 292 11
2011-04-05 08:13:34 51°11.148 2°41.728 313.8 0.6 296 11
2011-04-05 08:13:39 51°11.149 2°41.727 313.7 0.6 296 11
2011-04-05 08:13:43 51°11.149 2°41.726 313.6 0.5 293 11.1
2011-04-05 08:13:49 51°11.149 2°41.724 313.4 0.5 297 11
2011-04-05 08:13:54 51°11.15 2°41.723 313.3 0.5 295 11
2011-04-05 08:13:59 51°11.15 2°41.722 313.2 0.5 297 10.9
2011-04-05 08:14:04 51°11.15 2°41.721 312.9 0.5 296 10.8
2011-04-05 08:14:09 51°11.151 2°41.72 312.8 0.6 296 10.7
2011-04-05 08:14:14 51°11.151 2°41.719 312.8 0.5 297 10.7
2011-04-05 08:14:19 51°11.151 2°41.718 312.5 0.5 294 10.8
2011-04-05 08:14:24 51°11.152 2°41.717 312.4 0.5 299 10.7
2011-04-05 08:14:29 51°11.152 2°41.716 312.4 0.5 294 10.7
2011-04-05 08:14:34 51°11.152 2°41.715 312.7 0.5 293 10.8
2011-04-05 08:14:39 51°11.153 2°41.714 312.9 0.5 292 10.8
2011-04-05 08:14:44 51°11.153 2°41.713 312.9 0.5 296 10.9
2011-04-05 08:14:49 51°11.153 2°41.712 312.9 0.5 298 10.8
2011-04-05 08:14:54 51°11.154 2°41.711 312.9 0.5 295 10.9
2011-04-05 08:14:59 51°11.154 2°41.71 312.9 0.5 291 10.8
2011-04-05 08:15:04 51°11.154 2°41.709 312.8 0.5 296 10.9
2011-04-05 08:15:09 51°11.154 2°41.708 312.9 0.5 294 10.9
2011-04-05 08:15:14 51°11.155 2°41.707 312.9 0.5 296 11.1
2011-04-05 08:15:19 51°11.155 2°41.706 313.1 0.5 301 11
2011-04-05 08:15:23 51°11.155 2°41.706 313.1 0.4 302 10.9
2011-04-05 08:15:29 51°11.156 2°41.705 313.6 0.5 304 10.9
2011-04-05 08:15:34 51°11.156 2°41.704 313.9 0.5 301 10.8
2011-04-05 08:15:39 51°11.157 2°41.703 314.2 0.5 302 10.7
2011-04-05 08:15:44 51°11.157 2°41.702 314.2 0.4 303 10.7
2011-04-05 08:15:49 51°11.157 2°41.701 314 0.5 293 10.7
2011-04-05 08:15:55 51°11.157 2°41.7 313.7 0.5 303 10.8
2011-04-05 08:15:59 51°11.157 2°41.7 313.6 0.4 292 11
2011-04-05 08:16:04 51°11.158 2°41.699 313.6 0.5 294 11
2011-04-05 08:16:09 51°11.158 2°41.698 313.6 0.5 298 11.1
2011-04-05 08:16:14 51°11.158 2°41.697 313.6 0.4 291 11.1
2011-04-05 08:16:19 51°11.158 2°41.696 313.3 0.4 289 11.1
2011-04-05 08:16:23 51°11.159 2°41.695 312.9 0.4 294 11
2011-04-05 08:16:29 51°11.159 2°41.694 312.8 0.4 288 11
2011-04-05 08:16:34 51°11.159 2°41.693 312.4 0.4 289 10.9
2011-04-05 08:16:39 51°11.159 2°41.692 312.2 0.4 291 10.8
2011-04-05 08:16:44 51°11.16 2°41.692 312 0.4 286 10.9
2011-04-05 08:16:49 51°11.16 2°41.691 311.7 0.4 292 10.9
2011-04-05 08:16:54 51°11.16 2°41.69 311.5 0.4 283 10.9
2011-04-05 08:16:59 51°11.16 2°41.689 311.4 0.5 295 11
2011-04-05 08:17:04 51°11.16 2°41.688 311.2 0.5 288 11
2011-04-05 08:17:09 51°11.161 2°41.687 311 0.4 291 10.9
2011-04-05 08:17:14 51°11.161 2°41.686 310.9 0.4 286 10.9
2011-04-05 08:17:19 51°11.161 2°41.685 310.9 0.4 294 10.9
2011-04-05 08:17:24 51°11.161 2°41.685 310.9 0.4 284 10.9
2011-04-05 08:17:29 51°11.162 2°41.684 310.8 0.4 295 10.8
2011-04-05 08:17:35 51°11.162 2°41.683 310.7 0.4 288 10.8
2011-04-05 08:17:39 51°11.162 2°41.682 310.7 0.4 296 10.8
2011-04-05 08:17:44 51°11.162 2°41.681 310.7 0.4 292 10.9
2011-04-05 08:17:49 51°11.163 2°41.681 310.7 0.4 297 11
2011-04-05 08:17:54 51°11.163 2°41.68 311.1 0.4 296 10.9
2011-04-05 08:17:59 51°11.163 2°41.679 311.4 0.4 298 10.9
2011-04-05 08:18:03 51°11.163 2°41.678 311.8 0.4 290 11
2011-04-05 08:18:09 51°11.163 2°41.678 312.2 0.4 296 11
2011-04-05 08:18:14 51°11.164 2°41.677 312.4 0.4 293 11
2011-04-05 08:18:19 51°11.164 2°41.676 312.7 0.4 292 11
2011-04-05 08:18:24 51°11.164 2°41.675 313.1 0.4 290 10.9
2011-04-05 08:18:29 51°11.164 2°41.674 313.3 0.4 294 10.8
2011-04-05 08:18:34 51°11.164 2°41.674 313.5 0.4 293 10.8
2011-04-05 08:18:39 51°11.164 2°41.673 313.8 0.3 290 10.9
2011-04-05 08:18:44 51°11.165 2°41.672 314.1 0.3 285 10.9
2011-04-05 08:18:49 51°11.165 2°41.672 314.4 0.3 288 10.9
2011-04-05 08:18:54 51°11.165 2°41.671 314.8 0.4 283 10.9
2011-04-05 08:18:59 51°11.165 2°41.67 315.1 0.4 282 10.8
2011-04-05 08:19:03 51°11.165 2°41.669 315.5 0.4 288 10.8
2011-04-05 08:19:09 51°11.165 2°41.668 315.6 0.4 286 10.8
2011-04-05 08:19:14 51°11.166 2°41.667 315.7 0.4 292 10.9
2011-04-05 08:19:19 51°11.166 2°41.667 315.7 0.4 292 10.9
2011-04-05 08:19:24 51°11.166 2°41.666 315.7 0.4 297 10.8
2011-04-05 08:19:29 51°11.166 2°41.665 315.7 0.4 294 10.8
2011-04-05 08:19:34 51°11.166 2°41.664 315.8 0.4 296 10.9
2011-04-05 08:19:39 51°11.167 2°41.664 316 0.4 300 10.7
2011-04-05 08:19:44 51°11.167 2°41.663 316.3 0.4 296 11
2011-04-05 08:19:49 51°11.167 2°41.662 316.7 0.4 306 11
2011-04-05 08:19:54 51°11.167 2°41.661 317.3 0.4 293 11
2011-04-05 08:19:59 51°11.168 2°41.661 317.6 0.4 299 11.1
2011-04-05 08:20:04 51°11.168 2°41.66 318 0.4 292 11.1
2011-04-05 08:20:09 51°11.168 2°41.659 318.1 0.4 290 11.1
2011-04-05 08:20:15 51°11.168 2°41.658 318.1 0.4 290 11
2011-04-05 08:20:19 51°11.168 2°41.658 318 0.4 296 11.2
2011-04-05 08:20:24 51°11.169 2°41.657 317.8 0.4 298 11.1
2011-04-05 08:20:29 51°11.169 2°41.656 317.5 0.4 292 11.1
2011-04-05 08:20:34 51°11.169 2°41.656 317.4 0.4 291 11
2011-04-05 08:20:39 51°11.169 2°41.655 317.5 0.4 288 11
2011-04-05 08:20:43 51°11.169 2°41.654 317.5 0.4 295 10.9
2011-04-05 08:20:49 51°11.17 2°41.653 317.5 0.4 300 10.9
2011-04-05 08:20:54 51°11.17 2°41.653 317.7 0.4 298 11
2011-04-05 08:20:59 51°11.17 2°41.652 317.9 0.3 293 11
2011-04-05 08:21:04 51°11.17 2°41.652 318.1 0.3 293 11
2011-04-05 08:21:09 51°11.17 2°41.651 318.4 0.4 289 11
2011-04-05 08:21:14 51°11.17 2°41.65 318.7 0.4 289 10.9
2011-04-05 08:21:19 51°11.171 2°41.649 318.7 0.4 296 10.8
2011-04-05 08:21:24 51°11.171 2°41.648 318.9 0.4 288 10.8
2011-04-05 08:21:29 51°11.171 2°41.648 318.9 0.4 292 10.9
2011-04-05 08:21:34 51°11.171 2°41.647 319 0.4 289 11
2011-04-05 08:21:39 51°11.171 2°41.646 319 0.4 286 10.9
2011-04-05 08:21:44 51°11.172 2°41.645 319 0.4 291 10.9
2011-04-05 08:21:49 51°11.172 2°41.644 318.9 0.4 290 10.9
2011-04-05 08:21:54 51°11.172 2°41.643 318.6 0.4 288 10.9
2011-04-05 08:21:59 51°11.172 2°41.642 318.4 0.4 287 10.8
2011-04-05 08:22:04 51°11.172 2°41.642 318.2 0.4 288 10.8
2011-04-05 08:22:09 51°11.172 2°41.641 318.2 0.4 289 11
2011-04-05 08:22:14 51°11.173 2°41.64 318.1 0.4 285 11
2011-04-05 08:22:19 51°11.173 2°41.639 318 0.4 289 10.9
2011-04-05 08:22:23 51°11.173 2°41.638 318 0.4 286 10.9
2011-04-05 08:22:29 51°11.173 2°41.637 317.9 0.4 286 10.8
2011-04-05 08:22:34 51°11.174 2°41.636 317.8 0.5 288 10.9
2011-04-05 08:22:39 51°11.174 2°41.635 317.6 0.5 289 11
2011-04-05 08:22:44 51°11.174 2°41.634 317.3 0.5 289 10.9
2011-04-05 08:22:49 51°11.174 2°41.633 317 0.5 290 10.9
2011-04-05 08:22:54 51°11.175 2°41.632 316.7 0.5 289 10.9
2011-04-05 08:22:59 51°11.175 2°41.631 316.4 0.5 288 11
2011-04-05 08:23:04 51°11.175 2°41.63 316.1 0.4 289 11
2011-04-05 08:23:09 51°11.175 2°41.629 315.8 0.5 286 11
2011-04-05 08:23:14 51°11.175 2°41.628 315.8 0.5 289 11
2011-04-05 08:23:19 51°11.175 2°41.627 315.7 0.5 285 10.9
2011-04-05 08:23:23 51°11.176 2°41.626 315.7 0.5 287 11
2011-04-05 08:23:29 51°11.176 2°41.625 315.5 0.5 288 11
2011-04-05 08:23:34 51°11.176 2°41.624 315.3 0.4 289 11
2011-04-05 08:23:39 51°11.176 2°41.623 315.2 0.4 291 11.1
2011-04-05 08:23:44 51°11.177 2°41.622 315.7 0.5 290 11.1
2011-04-05 08:23:49 51°11.177 2°41.621 315.6 0.5 290 11.2
2011-04-05 08:23:54 51°11.177 2°41.621 315.6 0.5 288 11.2
2011-04-05 08:23:59 51°11.177 2°41.62 315.4 0.5 286 11
2011-04-05 08:24:04 51°11.177 2°41.619 315.2 0.5 288 10.9
2011-04-05 08:24:09 51°11.178 2°41.618 315.2 0.4 286 10.9
2011-04-05 08:24:14 51°11.178 2°41.617 315.1 0.5 290 11
2011-04-05 08:24:19 51°11.178 2°41.616 315.1 0.5 293 11
2011-04-05 08:24:23 51°11.178 2°41.615 315.1 0.4 289 11.1
2011-04-05 08:24:29 51°11.178 2°41.614 315.3 0.4 293 11.1
2011-04-05 08:24:34 51°11.178 2°41.613 315.5 0.4 283 11
2011-04-05 08:24:39 51°11.179 2°41.613 315.8 0.3 292 11.1
2011-04-05 08:24:44 51°11.179 2°41.612 316.2 0.4 294 11.1
2011-04-05 08:24:49 51°11.179 2°41.611 316.3 0.4 283 10.9
2011-04-05 08:24:54 51°11.179 2°41.61 316.2 0.4 296 11
2011-04-05 08:24:59 51°11.179 2°41.609 316.3 0.4 283 11.1
2011-04-05 08:25:04 51°11.18 2°41.609 316.3 0.4 292 11
2011-04-05 08:25:09 51°11.18 2°41.608 316.4 0.4 283 11
2011-04-05 08:25:14 51°11.18 2°41.607 316.3 0.4 289 11
2011-04-05 08:25:19 51°11.18 2°41.606 316.3 0.4 282 11
2011-04-05 08:25:23 51°11.18 2°41.605 316.2 0.4 284 11.1
2011-04-05 08:25:29 51°11.18 2°41.604 316.1 0.4 284 11.1
2011-04-05 08:25:34 51°11.18 2°41.604 316.1 0.4 287 11.1
2011-04-05 08:25:39 51°11.181 2°41.603 316.1 0.4 286 11
2011-04-05 08:25:44 51°11.181 2°41.602 316.1 0.4 287 11.1
2011-04-05 08:25:49 51°11.181 2°41.601 316 0.4 284 11
2011-04-05 08:25:54 51°11.181 2°41.6 316.1 0.4 279 11
2011-04-05 08:25:59 51°11.181 2°41.599 316.1 0.4 284 11
2011-04-05 08:26:04 51°11.181 2°41.599 316.3 0.4 283 11
2011-04-05 08:26:09 51°11.181 2°41.598 316.1 0.4 285 11
2011-04-05 08:26:14 51°11.181 2°41.597 316 0.4 288 10.9
2011-04-05 08:26:19 51°11.181 2°41.597 315.9 0.4 290 11.1
2011-04-05 08:26:24 51°11.182 2°41.596 315.8 0.4 291 11
2011-04-05 08:26:29 51°11.182 2°41.595 316 0.3 293 11
2011-04-05 08:26:35 51°11.182 2°41.594 316.3 0.4 290 11
2011-04-05 08:26:39 51°11.182 2°41.594 316.5 0.3 284 11
2011-04-05 08:26:44 51°11.182 2°41.593 316.8 0.3 288 11.1
2011-04-05 08:26:49 51°11.182 2°41.592 316.8 0.4 285 11.1
2011-04-05 08:26:54 51°11.182 2°41.591 316.9 0.4 289 11.1
2011-04-05 08:26:59 51°11.182 2°41.59 317 0.3 291 11
2011-04-05 08:27:03 51°11.182 2°41.589 317 0.3 289 11
2011-04-05 08:27:09 51°11.182 2°41.589 316.9 0.4 292 11.1
2011-04-05 08:27:14 51°11.182 2°41.588 316.9 0.3 292 11.1
2011-04-05 08:27:19 51°11.183 2°41.587 316.8 0.4 280 11.1
2011-04-05 08:27:24 51°11.183 2°41.587 317.1 0.3 290 11
2011-04-05 08:27:29 51°11.183 2°41.586 317.2 0.4 284 11.1
2011-04-05 08:27:34 51°11.183 2°41.585 317.5 0.3 291 11
2011-04-05 08:27:39 51°11.183 2°41.585 317.5 0.3 286 11.2
2011-04-05 08:27:44 51°11.183 2°41.584 318 0.4 285 11.1
2011-04-05 08:27:49 51°11.184 2°41.583 318.2 0.4 282 11.1
2011-04-05 08:27:54 51°11.184 2°41.582 318.5 0.3 286 10.8
2011-04-05 08:27:59 51°11.184 2°41.581 318.7 0.3 283 11
2011-04-05 08:28:03 51°11.184 2°41.581 319.2 0.3 283 11
2011-04-05 08:28:09 51°11.184 2°41.58 319.4 0.3 283 11
2011-04-05 08:28:14 51°11.184 2°41.58 319.5 0.3 283 10.9
2011-04-05 08:28:19 51°11.184 2°41.579 319.7 0.4 283 11
2011-04-05 08:28:24 51°11.184 2°41.578 319.8 0.3 291 11
2011-04-05 08:28:29 51°11.185 2°41.578 320 0.4 282 11
2011-04-05 08:28:34 51°11.185 2°41.577 320.2 0.3 286 11.1
2011-04-05 08:28:39 51°11.185 2°41.576 320.3 0.4 280 11.1
2011-04-05 08:28:44 51°11.185 2°41.575 320.5 0.4 282 11.1
2011-04-05 08:28:49 51°11.185 2°41.575 320.6 0.4 283 11.1
2011-04-05 08:28:54 51°11.185 2°41.574 320.8 0.4 282 11.1
2011-04-05 08:28:59 51°11.185 2°41.573 320.9 0.4 282 10.9
2011-04-05 08:29:03 51°11.185 2°41.572 320.8 0.3 287 10.9
2011-04-05 08:29:09 51°11.185 2°41.571 320.9 0.4 280 11.1
2011-04-05 08:29:14 51°11.185 2°41.57 321 0.4 281 11.1
2011-04-05 08:29:19 51°11.185 2°41.569 321.2 0.4 282 11
2011-04-05 08:29:24 51°11.185 2°41.568 321.1 0.4 280 11
2011-04-05 08:29:29 51°11.185 2°41.568 321.1 0.4 284 11.1
2011-04-05 08:29:34 51°11.185 2°41.567 321.1 0.4 281 11.2
2011-04-05 08:29:39 51°11.186 2°41.566 321 0.4 287 11.2
2011-04-05 08:29:44 51°11.186 2°41.565 320.9 0.4 286 11.2
2011-04-05 08:29:49 51°11.186 2°41.564 320.6 0.3 296 11.1
2011-04-05 08:29:54 51°11.186 2°41.564 320.5 0.4 290 11.1
2011-04-05 08:29:59 51°11.186 2°41.563 320.4 0.4 298 11.1
2011-04-05 08:30:04 51°11.186 2°41.562 320.4 0.4 296 11.2
2011-04-05 08:30:09 51°11.187 2°41.562 320.4 0.4 296 11.1
2011-04-05 08:30:14 51°11.187 2°41.561 320.3 0.4 294 11.1
2011-04-05 08:30:19 51°11.187 2°41.56 320.4 0.4 294 11.1
2011-04-05 08:30:24 51°11.187 2°41.559 320.2 0.4 287 11
2011-04-05 08:30:29 51°11.187 2°41.559 320.2 0.4 290 11.1
2011-04-05 08:30:34 51°11.187 2°41.558 320.1 0.4 288 11
2011-04-05 08:30:39 51°11.188 2°41.557 319.9 0.4 290 11.1
2011-04-05 08:30:43 51°11.188 2°41.556 319.6 0.4 291 11.1
2011-04-05 08:30:49 51°11.188 2°41.556 319.5 0.4 292 11.1
2011-04-05 08:30:54 51°11.188 2°41.555 319.3 0.4 295 11.1
2011-04-05 08:30:59 51°11.188 2°41.554 319.3 0.4 294 11.2
2011-04-05 08:31:04 51°11.189 2°41.553 319.2 0.4 292 11.2
2011-04-05 08:31:09 51°11.189 2°41.553 319.2 0.4 291 11.1
2011-04-05 08:31:15 51°11.189 2°41.552 319.3 0.4 296 11.2
2011-04-05 08:31:19 51°11.189 2°41.551 319.4 0.4 287 11.1
2011-04-05 08:31:24 51°11.189 2°41.55 319.6 0.4 291 11.1
2011-04-05 08:31:29 51°11.19 2°41.55 319.7 0.4 289 11.2
2011-04-05 08:31:34 51°11.19 2°41.549 319.6 0.4 292 10.9
2011-04-05 08:31:39 51°11.19 2°41.548 319.4 0.4 294 11.2
2011-04-05 08:31:43 51°11.19 2°41.547 319.3 0.4 292 11.1
2011-04-05 08:31:49 51°11.19 2°41.547 318.9 0.4 295 11.1
2011-04-05 08:31:54 51°11.191 2°41.546 318.7 0.4 290 11.1
2011-04-05 08:31:59 51°11.191 2°41.545 318.3 0.5 291 11.2